Terminal Aerodrome Forecast
Issued by NWS

Home | Current Version | Previous Version | Text Only | Print | Product List | Glossary On
Versions: 1 2 3 4 5 6 7 8 9 10 11 12 13 14 15 16 17 18 19
674
FTUS41 KPHI 092121 AAA
TAFPNE
TAF AMD
KPNE 092121Z 0921/1018 07006KT 2SM -SN BR OVC015
      TEMPO 0922/1001 1/2SM SN FG OVC006
     FM100300 VRB03KT 3SM BR OVC010
     FM100600 28006KT 4SM BR OVC010
     FM100900 28009KT 4SM BR OVC015
     FM101100 29012G18KT P6SM SCT020 BKN060=

USA.gov is the U.S. government's official web portal to all federal, state and local government web resources and services.